createdAt,value
2019-02-04T00:00:39.794Z,11.70
2019-02-04T00:03:10.453Z,9.67
2019-02-04T00:05:39.350Z,11.30
2019-02-04T00:08:08.362Z,12.17
2019-02-04T00:10:37.343Z,9.23
2019-02-04T00:13:06.913Z,14.47
2019-02-04T00:15:36.182Z,9.63
2019-02-04T00:18:05.663Z,9.37
2019-02-04T00:20:35.074Z,9.57
2019-02-04T00:23:04.425Z,12.73
2019-02-04T00:25:33.438Z,16.07
2019-02-04T00:28:02.354Z,13.53
2019-02-04T00:30:31.295Z,13.50
2019-02-04T00:33:10.194Z,10.40
2019-02-04T00:35:39.133Z,13.27
2019-02-04T00:38:08.045Z,10.47
2019-02-04T00:40:36.957Z,8.87
2019-02-04T00:43:05.893Z,7.13
2019-02-04T00:45:34.806Z,9.07
2019-02-04T00:48:03.777Z,9.47
2019-02-04T00:50:33.046Z,14.67
2019-02-04T00:53:02.037Z,8.97
2019-02-04T00:55:31.276Z,5.83
2019-02-04T00:58:00.293Z,8.43
2019-02-04T01:00:29.669Z,12.90
2019-02-04T01:02:58.653Z,11.97
2019-02-04T01:05:27.589Z,9.53
2019-02-04T01:07:56.494Z,8.47
2019-02-04T01:10:27.016Z,10.43
2019-02-04T01:12:56.019Z,11.67
2019-02-04T01:15:25.401Z,12.50
2019-02-04T01:17:54.414Z,9.30
2019-02-04T01:20:28.490Z,10.73
2019-02-04T01:22:57.977Z,15.03
2019-02-04T01:25:27.068Z,10.60
2019-02-04T01:27:56.407Z,15.50
2019-02-04T01:30:25.481Z,14.87
2019-02-04T01:32:54.729Z,14.33
2019-02-04T01:35:23.747Z,9.23
2019-02-04T01:37:52.654Z,15.77
2019-02-04T01:40:22.525Z,10.43
2019-02-04T01:42:51.638Z,13.30
2019-02-04T01:45:20.542Z,8.87
2019-02-04T01:47:49.441Z,11.57
2019-02-04T01:50:20.737Z,13.53
2019-02-04T01:52:49.725Z,12.87
2019-02-04T01:55:18.650Z,9.93
2019-02-04T01:57:48.958Z,9.57
2019-02-04T02:00:22.046Z,12.97
2019-02-04T02:02:50.954Z,10.90
2019-02-04T02:05:19.890Z,9.60
2019-02-04T02:07:49.130Z,13.97
2019-02-04T02:10:19.698Z,9.70
2019-02-04T02:12:49.142Z,14.27
2019-02-04T02:15:18.811Z,11.23
2019-02-04T02:17:48.698Z,13.33
2019-02-04T02:20:22.150Z,13.77
2019-02-04T02:22:51.059Z,11.10
2019-02-04T02:25:19.973Z,10.20
2019-02-04T02:27:49.246Z,12.23
2019-02-04T02:30:19.725Z,9.53
2019-02-04T02:32:48.961Z,12.17
2019-02-04T02:35:18.061Z,12.60
2019-02-04T02:37:46.965Z,10.63
2019-02-04T02:40:17.417Z,12.27
2019-02-04T02:42:46.349Z,13.37
2019-02-04T02:45:15.529Z,14.67
2019-02-04T02:47:44.441Z,13.53
2019-02-04T02:50:14.358Z,12.00
2019-02-04T02:52:43.269Z,16.57
2019-02-04T02:55:13.706Z,11.53
2019-02-04T02:57:42.642Z,12.33
2019-02-04T03:00:13.302Z,11.90
2019-02-04T03:02:42.210Z,12.27
2019-02-04T03:05:14.016Z,15.67
2019-02-04T03:07:43.427Z,12.00
2019-02-04T03:10:13.994Z,10.47
2019-02-04T03:12:42.930Z,11.93
2019-02-04T03:15:11.957Z,15.37
2019-02-04T03:17:51.057Z,14.00
2019-02-04T03:20:11.974Z,14.47
2019-02-04T03:22:41.213Z,10.67
2019-02-04T03:25:11.501Z,13.90
2019-02-04T03:27:41.249Z,17.40
2019-02-04T03:30:13.543Z,15.37
2019-02-04T03:32:42.548Z,16.03
2019-02-04T03:35:11.953Z,12.73
2019-02-04T03:37:40.960Z,18.13
2019-02-04T03:40:11.739Z,13.73
2019-02-04T03:42:41.010Z,12.57
2019-02-04T03:45:10.784Z,18.43
2019-02-04T03:47:39.774Z,17.30
2019-02-04T03:50:10.389Z,15.90
2019-02-04T03:52:39.297Z,13.17
2019-02-04T03:55:10.958Z,17.90
2019-02-04T03:57:39.977Z,14.47
2019-02-04T04:00:10.421Z,19.83
2019-02-04T04:02:39.347Z,17.30
2019-02-04T04:05:08.826Z,17.70
2019-02-04T04:07:37.940Z,16.70
2019-02-04T04:10:07.930Z,14.77
2019-02-04T04:12:36.867Z,20.73
2019-02-04T04:15:07.261Z,21.37
2019-02-04T04:17:36.174Z,22.47
2019-02-04T04:20:11.202Z,19.67
2019-02-04T04:22:40.481Z,21.47
2019-02-04T04:25:10.842Z,19.10
2019-02-04T04:27:40.113Z,22.20
2019-02-04T04:30:10.664Z,19.93
2019-02-04T04:32:39.565Z,22.07
2019-02-04T04:35:08.578Z,20.47
2019-02-04T04:37:37.825Z,17.30
2019-02-04T04:40:08.367Z,22.83
2019-02-04T04:42:37.649Z,19.00
2019-02-04T04:45:08.185Z,20.30
2019-02-04T04:47:37.106Z,19.07
2019-02-04T04:50:07.293Z,16.83
2019-02-04T04:52:36.549Z,18.03
2019-02-04T04:55:07.285Z,15.65
2019-02-04T04:57:36.234Z,21.53
2019-02-04T05:00:07.428Z,16.77
2019-02-04T05:02:36.695Z,21.00
2019-02-04T05:05:09.062Z,27.25
2019-02-04T05:07:38.398Z,22.50
2019-02-04T05:10:09.079Z,19.80
2019-02-04T05:12:38.061Z,22.70
2019-02-04T05:15:10.445Z,21.30
2019-02-04T05:17:39.730Z,24.53
2019-02-04T05:20:10.438Z,20.20
2019-02-04T05:22:39.372Z,21.90
2019-02-04T05:25:08.354Z,23.57
2019-02-04T05:27:37.298Z,22.80
2019-02-04T05:30:13.158Z,20.87
2019-02-04T05:32:42.097Z,25.57
2019-02-04T05:35:11.082Z,22.30
2019-02-04T05:37:40.002Z,24.60
2019-02-04T05:40:10.068Z,30.40
2019-02-04T05:42:39.029Z,26.43
2019-02-04T05:45:09.506Z,19.00
2019-02-04T05:47:38.446Z,18.47
2019-02-04T05:50:09.131Z,18.97
2019-02-04T05:52:38.041Z,20.23
2019-02-04T05:55:07.597Z,16.70
2019-02-04T05:57:36.529Z,18.70
2019-02-04T06:00:07.295Z,16.70
2019-02-04T06:02:36.243Z,19.40
2019-02-04T06:05:08.614Z,17.80
2019-02-04T06:07:37.660Z,19.17
2019-02-04T06:10:07.907Z,17.43
2019-02-04T06:12:37.091Z,18.97
2019-02-04T06:15:07.771Z,20.47
2019-02-04T06:17:36.714Z,22.03
2019-02-04T06:20:07.565Z,19.10
2019-02-04T06:22:36.478Z,20.70
2019-02-04T06:25:05.962Z,22.25
2019-02-04T06:27:34.868Z,22.37
2019-02-04T06:30:05.050Z,18.40
2019-02-04T06:32:34.661Z,19.00
2019-02-04T06:35:04.337Z,17.73
2019-02-04T06:37:33.242Z,17.57
2019-02-04T06:40:02.546Z,18.43
2019-02-04T06:42:31.471Z,18.10
2019-02-04T06:45:00.380Z,20.63
2019-02-04T06:47:29.658Z,19.70
2019-02-04T06:49:58.707Z,17.77
2019-02-04T06:52:27.658Z,19.13
2019-02-04T06:54:56.970Z,17.67
2019-02-04T06:57:25.882Z,17.33
2019-02-04T06:59:54.795Z,15.27
2019-02-04T07:02:23.743Z,17.40
2019-02-04T07:04:52.649Z,20.77
2019-02-04T07:07:21.567Z,19.87
2019-02-04T07:09:50.578Z,19.37
2019-02-04T07:12:19.486Z,16.83
2019-02-04T07:14:48.734Z,17.60
2019-02-04T07:17:17.757Z,20.20
2019-02-04T07:19:46.674Z,18.73
2019-02-04T07:22:15.581Z,17.17
2019-02-04T07:24:44.521Z,20.57
2019-02-04T07:27:13.442Z,18.73
2019-02-04T07:29:42.356Z,19.63
2019-02-04T07:32:11.302Z,22.43
2019-02-04T07:34:40.550Z,19.90
2019-02-04T07:37:09.549Z,18.30
2019-02-04T07:39:38.489Z,15.87
2019-02-04T07:42:07.674Z,15.50
2019-02-04T07:44:36.581Z,19.50
2019-02-04T07:47:05.537Z,14.20
2019-02-04T07:49:35.570Z,19.80
2019-02-04T07:52:04.618Z,16.70
2019-02-04T07:54:33.559Z,14.77
2019-02-04T07:57:03.165Z,14.53
2019-02-04T07:59:32.157Z,15.77
2019-02-04T08:02:01.097Z,15.40
2019-02-04T08:04:30.006Z,11.07
2019-02-04T08:06:59.245Z,14.03
2019-02-04T08:09:28.282Z,14.23
2019-02-04T08:11:57.790Z,15.93
2019-02-04T08:14:26.849Z,16.37
2019-02-04T08:16:55.793Z,16.90
2019-02-04T08:19:25.022Z,15.27
2019-02-04T08:21:54.017Z,13.27
2019-02-04T08:24:22.958Z,14.70
2019-02-04T08:26:51.858Z,14.77
2019-02-04T08:29:20.763Z,13.23
2019-02-04T08:31:49.700Z,14.13
2019-02-04T08:34:18.606Z,14.13
2019-02-04T08:36:47.518Z,15.47
2019-02-04T08:39:16.455Z,15.03
2019-02-04T08:41:45.660Z,14.70
2019-02-04T08:44:14.957Z,15.73
2019-02-04T08:46:43.982Z,13.63
2019-02-04T08:49:12.889Z,12.70
2019-02-04T08:51:41.794Z,13.23
2019-02-04T08:54:11.070Z,11.00
2019-02-04T08:56:42.852Z,13.13
2019-02-04T08:59:10.669Z,14.60
2019-02-04T09:01:39.972Z,16.10
2019-02-04T09:04:09.009Z,14.27
2019-02-04T09:06:37.986Z,13.83
2019-02-04T09:09:08.381Z,19.43
2019-02-04T09:11:37.380Z,12.27
2019-02-04T09:14:06.359Z,14.03
2019-02-04T09:16:35.625Z,14.77
2019-02-04T09:19:05.177Z,15.80
2019-02-04T09:21:34.507Z,13.53
2019-02-04T09:24:04.038Z,15.60
2019-02-04T09:26:33.367Z,14.13
2019-02-04T09:29:02.637Z,15.27
2019-02-04T09:31:31.585Z,14.33
2019-02-04T09:34:00.821Z,18.47
2019-02-04T09:36:30.157Z,17.53
2019-02-04T09:38:59.511Z,16.43
2019-02-04T09:41:28.843Z,15.17
2019-02-04T09:43:58.463Z,16.93
2019-02-04T09:46:27.826Z,15.17
2019-02-04T09:48:57.149Z,22.20
2019-02-04T09:51:26.477Z,20.33
2019-02-04T09:53:55.862Z,17.60
2019-02-04T09:56:25.193Z,18.43
2019-02-04T09:58:54.706Z,21.37
2019-02-04T10:01:24.065Z,21.70
2019-02-04T10:03:53.457Z,18.93
2019-02-04T10:06:22.794Z,20.87
2019-02-04T10:08:52.222Z,17.63
2019-02-04T10:11:21.554Z,19.87
2019-02-04T10:13:50.897Z,23.23
2019-02-04T10:16:20.252Z,17.83
2019-02-04T10:18:49.575Z,20.87
2019-02-04T10:21:18.924Z,21.87
2019-02-04T10:23:48.281Z,22.27
2019-02-04T10:26:17.617Z,21.03
2019-02-04T10:28:46.605Z,23.50
2019-02-04T10:31:15.948Z,21.67
2019-02-04T10:33:45.282Z,22.90
2019-02-04T10:36:14.722Z,23.93
2019-02-04T10:38:44.126Z,24.37
2019-02-04T10:41:13.535Z,24.97
2019-02-04T10:43:42.889Z,25.57
2019-02-04T10:46:11.958Z,29.73
2019-02-04T10:48:41.227Z,22.20
2019-02-04T10:51:10.277Z,28.27
2019-02-04T10:53:39.642Z,26.37
2019-02-04T10:56:09.030Z,25.90
2019-02-04T10:58:38.377Z,25.07
2019-02-04T11:01:07.796Z,23.93
2019-02-04T11:03:36.807Z,21.80
2019-02-04T11:06:06.285Z,25.80
2019-02-04T11:08:35.627Z,22.93
2019-02-04T11:11:05.384Z,27.13
2019-02-04T11:13:34.811Z,25.20
2019-02-04T11:16:04.484Z,25.63
2019-02-04T11:18:33.875Z,24.70
2019-02-04T11:21:03.372Z,27.70
2019-02-04T11:23:32.772Z,25.00
2019-02-04T11:26:02.419Z,26.63
2019-02-04T11:28:31.804Z,26.87
2019-02-04T11:31:01.329Z,27.77
2019-02-04T11:33:30.980Z,27.67
2019-02-04T11:36:00.429Z,24.23
2019-02-04T11:38:29.817Z,31.27
2019-02-04T11:40:59.142Z,26.30
2019-02-04T11:43:28.470Z,28.73
2019-02-04T11:45:57.909Z,28.77
2019-02-04T11:48:27.238Z,29.30
2019-02-04T11:50:56.566Z,28.50
2019-02-04T11:53:33.132Z,31.60
2019-02-04T11:55:59.646Z,31.57
2019-02-04T11:58:28.981Z,27.37
2019-02-04T12:00:58.349Z,30.73
2019-02-04T12:03:27.681Z,27.43
2019-02-04T12:05:57.018Z,25.10
2019-02-04T12:08:26.653Z,29.00
2019-02-04T12:10:59.232Z,26.30
2019-02-04T12:13:28.557Z,26.00
2019-02-04T12:15:58.302Z,29.17
2019-02-04T12:18:27.626Z,28.53
2019-02-04T12:20:56.964Z,30.80
2019-02-04T12:23:26.327Z,28.20
2019-02-04T12:25:55.649Z,30.10
2019-02-04T12:28:24.972Z,27.03
2019-02-04T12:30:54.437Z,27.33
2019-02-04T12:33:23.767Z,28.17
2019-02-04T12:35:53.095Z,28.47
2019-02-04T12:38:22.461Z,25.07
2019-02-04T12:40:51.785Z,23.07
2019-02-04T12:43:21.412Z,24.10
2019-02-04T12:45:51.171Z,25.23
2019-02-04T12:48:20.498Z,26.57
2019-02-04T12:50:49.874Z,24.23
2019-02-04T12:53:19.238Z,27.37
2019-02-04T12:55:48.575Z,24.90
2019-02-04T12:58:17.978Z,25.43
2019-02-04T13:00:47.346Z,26.93
2019-02-04T13:03:16.665Z,24.03
2019-02-04T13:05:49.007Z,23.60
2019-02-04T13:08:18.854Z,21.60
2019-02-04T13:10:48.266Z,20.30
2019-02-04T13:13:18.629Z,23.60
2019-02-04T13:15:47.991Z,21.93
2019-02-04T13:18:17.331Z,24.67
2019-02-04T13:20:46.829Z,25.43
2019-02-04T13:23:16.194Z,22.93
2019-02-04T13:25:45.597Z,21.03
2019-02-04T13:28:15.725Z,17.43
2019-02-04T13:30:47.097Z,19.40
2019-02-04T13:33:16.989Z,17.90
2019-02-04T13:35:46.401Z,18.60
2019-02-04T13:38:15.761Z,20.03
2019-02-04T13:40:45.222Z,19.97
2019-02-04T13:43:14.797Z,19.27
2019-02-04T13:45:44.378Z,17.70
2019-02-04T13:48:14.253Z,17.33
2019-02-04T13:50:43.640Z,16.10
2019-02-04T13:53:12.999Z,21.20
2019-02-04T13:55:42.670Z,21.43
2019-02-04T13:58:12.142Z,18.87
2019-02-04T14:00:41.682Z,23.67
2019-02-04T14:03:11.178Z,19.17
2019-02-04T14:05:40.500Z,17.27
2019-02-04T14:08:09.861Z,15.77
2019-02-04T14:10:41.422Z,17.97
2019-02-04T14:13:11.126Z,16.60
2019-02-04T14:15:41.690Z,13.77
2019-02-04T14:18:11.362Z,15.47
2019-02-04T14:20:40.690Z,16.70
2019-02-04T14:23:10.094Z,17.07
2019-02-04T14:25:39.489Z,17.43
2019-02-04T14:28:08.962Z,16.27
2019-02-04T14:30:39.177Z,13.70
2019-02-04T14:33:08.810Z,16.47
2019-02-04T14:35:38.213Z,18.63
2019-02-04T14:38:07.810Z,14.60
2019-02-04T14:40:37.085Z,13.77
2019-02-04T14:43:15.962Z,15.20
2019-02-04T14:46:09.274Z,14.33
2019-02-04T14:49:01.003Z,13.77
2019-02-04T14:51:53.055Z,14.97
2019-02-04T14:54:37.645Z,11.50
2019-02-04T14:57:03.301Z,16.27
2019-02-04T14:59:33.301Z,18.67
2019-02-04T15:02:21.009Z,15.30
2019-02-04T15:04:56.449Z,22.00
2019-02-04T15:07:32.712Z,19.47
2019-02-04T15:10:05.072Z,19.83
2019-02-04T15:12:43.818Z,14.93
2019-02-04T15:15:31.341Z,11.87
2019-02-04T15:18:06.460Z,10.57
2019-02-04T15:20:55.512Z,14.87
2019-02-04T15:23:39.364Z,11.63
2019-02-04T15:26:12.884Z,14.03
2019-02-04T15:28:45.485Z,11.27
2019-02-04T15:31:32.736Z,13.53
2019-02-04T15:34:29.774Z,14.13
2019-02-04T15:37:23.362Z,8.57
2019-02-04T15:39:53.948Z,10.73
2019-02-04T15:42:32.781Z,9.07
2019-02-04T15:45:32.422Z,9.23
2019-02-04T15:48:02.013Z,8.90
2019-02-04T15:50:51.354Z,9.63
2019-02-04T15:53:20.718Z,10.97
2019-02-04T15:55:50.220Z,9.73
2019-02-04T15:58:19.653Z,10.47
2019-02-04T16:00:49.288Z,9.10
2019-02-04T16:03:18.278Z,9.67
2019-02-04T16:05:47.513Z,11.03
2019-02-04T16:08:16.869Z,7.37
2019-02-04T16:10:46.213Z,10.10
2019-02-04T16:13:28.735Z,11.50
2019-02-04T16:15:58.070Z,9.10
2019-02-04T16:18:27.390Z,9.23
2019-02-04T16:20:56.745Z,9.27
2019-02-04T16:23:26.074Z,9.27
2019-02-04T16:25:55.393Z,8.87
2019-02-04T16:28:24.760Z,8.37
2019-02-04T16:30:54.085Z,9.90
2019-02-04T16:33:23.406Z,9.97
2019-02-04T16:35:52.770Z,10.57
2019-02-04T16:38:22.098Z,10.87
2019-02-04T16:40:51.496Z,12.73
2019-02-04T16:43:20.858Z,10.80
2019-02-04T16:45:50.177Z,13.47
2019-02-04T16:48:19.524Z,13.80
2019-02-04T16:51:03.364Z,10.73
2019-02-04T16:53:19.903Z,13.73
2019-02-04T16:55:49.238Z,9.63
2019-02-04T16:58:18.614Z,12.40
2019-02-04T17:00:47.930Z,10.53
2019-02-04T17:03:18.814Z,12.33
2019-02-04T17:05:47.978Z,12.17
2019-02-04T17:08:17.587Z,11.17
2019-02-04T17:10:46.924Z,11.67
2019-02-04T17:13:16.291Z,10.60
2019-02-04T17:15:45.622Z,10.77
2019-02-04T17:18:14.949Z,15.03
2019-02-04T17:20:44.792Z,12.87
2019-02-04T17:23:21.881Z,12.63
2019-02-04T17:25:44.698Z,13.17
2019-02-04T17:28:14.058Z,12.57
2019-02-04T17:30:43.390Z,14.70
2019-02-04T17:33:12.719Z,11.00
2019-02-04T17:35:42.074Z,15.23
2019-02-04T17:38:11.414Z,13.13
2019-02-04T17:40:41.210Z,12.00
2019-02-04T17:43:10.253Z,13.63
2019-02-04T17:45:39.498Z,14.10
2019-02-04T17:48:08.566Z,13.10
2019-02-04T17:50:37.896Z,12.97
2019-02-04T17:53:07.251Z,13.23
2019-02-04T17:55:36.505Z,12.67
2019-02-04T17:58:05.915Z,12.07
2019-02-04T18:00:42.637Z,13.37
2019-02-04T18:03:11.985Z,16.50
2019-02-04T18:05:41.315Z,14.17
2019-02-04T18:08:10.720Z,14.17
2019-02-04T18:10:40.066Z,13.07
2019-02-04T18:13:09.740Z,12.83
2019-02-04T18:15:39.078Z,17.30
2019-02-04T18:18:08.110Z,14.67
2019-02-04T18:20:37.571Z,14.93
2019-02-04T18:23:06.913Z,13.50
2019-02-04T18:25:35.850Z,11.67
2019-02-04T18:28:05.225Z,14.37
2019-02-04T18:30:34.935Z,14.10
2019-02-04T18:33:04.277Z,10.93
2019-02-04T18:35:33.990Z,10.80
2019-02-04T18:38:03.326Z,11.20
2019-02-04T18:40:32.690Z,13.67
2019-02-04T18:43:02.023Z,11.97
2019-02-04T18:45:33.490Z,13.07
2019-02-04T18:48:02.842Z,11.07
2019-02-04T18:50:32.562Z,12.23
2019-02-04T18:53:01.633Z,10.67
2019-02-04T18:55:33.515Z,10.23
2019-02-04T18:58:02.838Z,15.17
2019-02-04T19:00:33.519Z,14.77
2019-02-04T19:03:16.501Z,12.37
2019-02-04T19:05:36.122Z,13.73
2019-02-04T19:08:06.282Z,11.53
2019-02-04T19:10:35.657Z,11.10
2019-02-04T19:13:04.654Z,10.90
2019-02-04T19:15:33.902Z,13.90
2019-02-04T19:18:06.874Z,13.40
2019-02-04T19:20:36.352Z,10.63
2019-02-04T19:23:05.763Z,10.07
2019-02-04T19:25:35.146Z,11.57
2019-02-04T19:28:05.808Z,12.53
2019-02-04T19:30:47.846Z,8.83
2019-02-04T19:33:16.870Z,9.57
2019-02-04T19:35:46.102Z,10.37
2019-02-04T19:38:15.127Z,10.87
2019-02-04T19:40:44.371Z,10.67
2019-02-04T19:43:13.642Z,9.87
2019-02-04T19:45:42.910Z,8.87
2019-02-04T19:48:12.243Z,9.30
2019-02-04T19:50:41.579Z,10.63
2019-02-04T19:53:10.580Z,10.57
2019-02-04T19:55:39.856Z,11.10
2019-02-04T19:58:09.697Z,10.77
2019-02-04T20:00:40.387Z,12.00
2019-02-04T20:03:09.709Z,11.47
2019-02-04T20:05:39.112Z,11.17
2019-02-04T20:08:08.202Z,8.80
2019-02-04T20:10:37.112Z,9.47
2019-02-04T20:13:06.597Z,13.10
2019-02-04T20:15:35.921Z,10.63
2019-02-04T20:18:05.654Z,10.77
2019-02-04T20:20:34.695Z,9.47
2019-02-04T20:23:04.042Z,11.10
2019-02-04T20:25:34.504Z,11.73
2019-02-04T20:28:06.744Z,9.37
2019-02-04T20:30:45.954Z,11.93
2019-02-04T20:33:12.914Z,12.47
2019-02-04T20:35:42.311Z,12.40
2019-02-04T20:38:11.343Z,12.33
2019-02-04T20:40:40.262Z,11.13
2019-02-04T20:43:09.515Z,10.13
2019-02-04T20:45:39.001Z,9.70
2019-02-04T20:48:10.671Z,9.00
2019-02-04T20:50:45.470Z,11.20
2019-02-04T20:53:19.366Z,12.03
2019-02-04T20:55:48.281Z,10.83
2019-02-04T20:58:17.566Z,10.23
2019-02-04T21:00:46.572Z,9.80
2019-02-04T21:03:15.466Z,10.20
2019-02-04T21:05:44.406Z,8.47
2019-02-04T21:08:13.316Z,8.10
2019-02-04T21:10:42.621Z,10.00
2019-02-04T21:13:11.646Z,10.53
2019-02-04T21:15:40.878Z,8.73
2019-02-04T21:18:09.873Z,9.00
2019-02-04T21:20:38.817Z,9.47
2019-02-04T21:23:07.730Z,8.67
2019-02-04T21:25:36.905Z,8.03
2019-02-04T21:28:05.848Z,9.57
2019-02-04T21:30:38.657Z,10.80
2019-02-04T21:33:08.033Z,11.33
2019-02-04T21:35:37.398Z,11.17
2019-02-04T21:38:06.453Z,8.53
2019-02-04T21:40:35.753Z,9.67
2019-02-04T21:43:04.853Z,11.17
2019-02-04T21:45:33.774Z,12.23
2019-02-04T21:48:02.692Z,13.57
2019-02-04T21:50:31.623Z,9.83
2019-02-04T21:53:00.529Z,6.43
2019-02-04T21:55:29.454Z,11.30
2019-02-04T21:57:58.381Z,10.30
2019-02-04T22:00:33.048Z,10.37
2019-02-04T22:03:02.374Z,10.43
2019-02-04T22:05:33.661Z,10.53
2019-02-04T22:08:03.430Z,9.57
2019-02-04T22:10:32.758Z,9.67
2019-02-04T22:13:01.775Z,12.20
2019-02-04T22:15:30.678Z,12.10
2019-02-04T22:17:59.918Z,11.47
2019-02-04T22:20:29.081Z,9.07
2019-02-04T22:22:58.325Z,13.37
2019-02-04T22:25:27.321Z,13.47
2019-02-04T22:27:56.268Z,10.50
2019-02-04T22:30:27.243Z,9.97
2019-02-04T22:32:56.309Z,11.87
2019-02-04T22:35:25.427Z,10.40
2019-02-04T22:37:54.400Z,15.00
2019-02-04T22:40:26.222Z,13.07
2019-02-04T22:42:55.519Z,9.63
2019-02-04T22:45:24.425Z,11.87
2019-02-04T22:47:54.522Z,12.37
2019-02-04T22:50:26.039Z,14.03
2019-02-04T22:52:55.418Z,10.87
2019-02-04T22:55:32.057Z,10.67
2019-02-04T22:57:55.312Z,10.23
2019-02-04T23:00:40.626Z,11.77
2019-02-04T23:03:10.479Z,11.37
2019-02-04T23:05:39.850Z,14.40
2019-02-04T23:08:08.843Z,10.73
2019-02-04T23:10:37.794Z,12.97
2019-02-04T23:13:06.878Z,11.50
2019-02-04T23:15:35.776Z,10.10
2019-02-04T23:18:05.288Z,11.57
2019-02-04T23:20:34.521Z,13.20
2019-02-04T23:23:04.095Z,14.03
2019-02-04T23:25:42.964Z,15.23
2019-02-04T23:28:04.625Z,13.37
2019-02-04T23:30:33.547Z,10.83
2019-02-04T23:33:03.253Z,12.97
2019-02-04T23:35:32.259Z,13.77
2019-02-04T23:38:01.174Z,11.80
2019-02-04T23:40:30.439Z,12.37
2019-02-04T23:42:59.782Z,13.80
2019-02-04T23:45:28.778Z,14.23
2019-02-04T23:47:58.317Z,13.20
2019-02-04T23:50:27.667Z,15.37
2019-02-04T23:52:56.722Z,17.33
2019-02-04T23:55:26.008Z,17.33
2019-02-04T23:57:55.024Z,16.00
